createdAt,value
2022-09-10T00:01:19.775Z,17.07
2022-09-10T00:03:50.309Z,37.93
2022-09-10T00:06:21.250Z,40.23
2022-09-10T00:08:49.271Z,25.17
2022-09-10T00:11:16.155Z,39.23
2022-09-10T00:13:46.148Z,31.43
2022-09-10T00:16:19.134Z,97.90
2022-09-10T00:18:47.953Z,53.70
2022-09-10T00:21:17.836Z,82.73
2022-09-10T00:23:50.809Z,59.33
2022-09-10T00:26:22.448Z,16.00
2022-09-10T00:28:54.828Z,41.73
2022-09-10T00:31:23.477Z,8.20
2022-09-10T00:33:51.105Z,49.63
2022-09-10T00:36:26.865Z,48.67
2022-09-10T00:38:57.258Z,8.53
2022-09-10T00:41:25.153Z,49.73
2022-09-10T00:43:58.863Z,63.93
2022-09-10T00:46:34.341Z,12.63
2022-09-10T00:49:24.942Z,38.63
2022-09-10T00:51:54.061Z,32.50
2022-09-10T00:54:36.244Z,52.67
2022-09-10T00:57:13.307Z,74.63
2022-09-10T00:59:45.316Z,60.80
2022-09-10T01:02:12.235Z,62.13
2022-09-10T01:04:43.259Z,5.93
2022-09-10T01:07:15.103Z,15.27
2022-09-10T01:09:42.918Z,48.50
2022-09-10T01:12:35.722Z,23.27
2022-09-10T01:15:25.568Z,10.20
2022-09-10T01:18:30.110Z,5.17
2022-09-10T01:21:22.013Z,9.40
2022-09-10T01:24:13.048Z,14.53
2022-09-10T01:27:04.236Z,33.53
2022-09-10T01:29:59.168Z,28.93
2022-09-10T01:32:56.155Z,7.87
2022-09-10T01:35:37.549Z,15.30
2022-09-10T01:38:09.639Z,46.03
2022-09-10T01:40:39.612Z,27.33
2022-09-10T01:43:09.493Z,16.43
2022-09-10T01:46:05.538Z,37.93
2022-09-10T01:48:45.715Z,30.60
2022-09-10T01:51:20.384Z,15.60
2022-09-10T01:54:26.417Z,16.60
2022-09-10T01:57:11.288Z,16.37
2022-09-10T02:00:10.212Z,3.47
2022-09-10T02:02:43.424Z,11.20
2022-09-10T02:05:12.466Z,14.30
2022-09-10T02:07:39.606Z,4.40
2022-09-10T02:10:09.475Z,4.03
2022-09-10T02:12:36.915Z,4.23
2022-09-10T02:15:08.857Z,6.37
2022-09-10T02:17:40.256Z,6.43
2022-09-10T02:20:10.915Z,5.07
2022-09-10T02:22:42.311Z,7.97
2022-09-10T02:25:15.456Z,5.20
2022-09-10T02:27:46.204Z,5.27
2022-09-10T02:30:13.405Z,5.13
2022-09-10T02:32:40.646Z,4.97
2022-09-10T02:35:07.886Z,9.27
2022-09-10T02:37:43.925Z,4.57
2022-09-10T02:40:13.198Z,5.60
2022-09-10T02:42:46.789Z,4.90
2022-09-10T02:45:22.322Z,6.47
2022-09-10T02:47:49.213Z,6.30
2022-09-10T02:50:16.078Z,5.60
2022-09-10T02:52:46.316Z,5.77
2022-09-10T02:55:13.656Z,5.20
2022-09-10T02:57:40.437Z,4.93
2022-09-10T03:00:08.038Z,4.80
2022-09-10T03:02:35.083Z,5.00
2022-09-10T03:05:05.247Z,5.37
2022-09-10T03:07:33.475Z,6.80
2022-09-10T03:10:00.350Z,4.70
2022-09-10T03:12:30.614Z,5.80
2022-09-10T03:15:01.516Z,4.90
2022-09-10T03:17:28.493Z,4.77
2022-09-10T03:19:55.463Z,5.30
2022-09-10T03:22:22.181Z,4.33
2022-09-10T03:24:52.279Z,4.73
2022-09-10T03:27:20.697Z,3.63
2022-09-10T03:29:47.807Z,4.30
2022-09-10T03:32:14.769Z,4.13
2022-09-10T03:34:41.536Z,5.40
2022-09-10T03:37:11.400Z,4.73
2022-09-10T03:39:38.323Z,3.87
2022-09-10T03:42:12.336Z,4.57
2022-09-10T03:44:42.201Z,3.40
2022-09-10T03:47:09.134Z,4.43
2022-09-10T03:49:35.972Z,8.97
2022-09-10T03:52:03.177Z,16.63
2022-09-10T03:54:32.793Z,17.33
2022-09-10T03:57:03.460Z,16.23
2022-09-10T03:59:30.202Z,15.93
2022-09-10T04:01:57.444Z,11.33
2022-09-10T04:04:27.698Z,9.60
2022-09-10T04:06:57.349Z,21.47
2022-09-10T04:09:24.308Z,5.90
2022-09-10T04:11:51.262Z,11.23
2022-09-10T04:14:18.115Z,10.53
2022-09-10T04:16:45.018Z,7.53
2022-09-10T04:19:13.082Z,6.30
2022-09-10T04:21:48.939Z,5.53
2022-09-10T04:24:21.942Z,4.83
2022-09-10T04:26:52.310Z,4.50
2022-09-10T04:29:23.270Z,4.70
2022-09-10T04:31:51.111Z,5.43
2022-09-10T04:34:18.304Z,5.47
2022-09-10T04:36:48.096Z,4.63
2022-09-10T04:39:18.178Z,4.73
2022-09-10T04:41:44.919Z,5.20
2022-09-10T04:44:11.932Z,5.47
2022-09-10T04:46:38.628Z,5.43
2022-09-10T04:49:08.296Z,6.70
2022-09-10T04:51:35.237Z,5.07
2022-09-10T04:54:02.056Z,7.90
2022-09-10T04:56:28.919Z,5.60
2022-09-10T04:58:58.995Z,7.13
2022-09-10T05:01:25.859Z,6.93
2022-09-10T05:03:52.661Z,5.50
2022-09-10T05:06:20.473Z,5.63
2022-09-10T05:08:47.216Z,5.77
2022-09-10T05:11:13.947Z,5.10
2022-09-10T05:13:41.688Z,5.13
2022-09-10T05:16:12.508Z,4.93
2022-09-10T05:18:41.799Z,5.23
2022-09-10T05:21:08.863Z,4.60
2022-09-10T05:23:35.764Z,4.33
2022-09-10T05:26:02.531Z,6.57
2022-09-10T05:28:29.405Z,6.40
2022-09-10T05:30:56.154Z,5.90
2022-09-10T05:33:22.950Z,3.23
2022-09-10T05:35:51.817Z,5.90
2022-09-10T05:38:19.047Z,7.97
2022-09-10T05:40:57.275Z,3.13
2022-09-10T05:43:27.548Z,3.03
2022-09-10T05:45:54.921Z,2.10
2022-09-10T05:48:22.070Z,3.40
2022-09-10T05:50:48.785Z,3.73
2022-09-10T05:53:15.790Z,3.60
2022-09-10T05:55:44.216Z,4.60
2022-09-10T05:58:10.975Z,2.07
2022-09-10T06:00:40.355Z,2.40
2022-09-10T06:03:08.191Z,2.80
2022-09-10T06:05:35.084Z,5.90
2022-09-10T06:08:08.512Z,4.40
2022-09-10T06:10:35.933Z,2.53
2022-09-10T06:13:07.169Z,3.27
2022-09-10T06:15:38.359Z,4.77
2022-09-10T06:18:07.303Z,4.10
2022-09-10T06:20:37.937Z,2.67
2022-09-10T06:23:05.087Z,4.37
2022-09-10T06:25:34.849Z,3.47
2022-09-10T06:28:02.214Z,5.13
2022-09-10T06:30:29.239Z,4.13
2022-09-10T06:32:56.460Z,2.90
2022-09-10T06:35:23.710Z,2.73
2022-09-10T06:37:50.497Z,4.43
2022-09-10T06:40:17.353Z,3.53
2022-09-10T06:42:44.070Z,3.07
2022-09-10T06:45:11.045Z,2.77
2022-09-10T06:50:25.156Z,3.30
2022-09-10T06:52:53.135Z,4.23
2022-09-10T06:55:26.265Z,3.10
2022-09-10T06:57:55.180Z,2.97
2022-09-10T07:00:25.183Z,3.67
2022-09-10T07:02:53.039Z,98.10
2022-09-10T07:05:19.749Z,3.37
2022-09-10T07:07:46.823Z,8.90
2022-09-10T07:10:13.836Z,5.90
2022-09-10T07:12:40.537Z,3.43
2022-09-10T07:15:10.347Z,5.77
2022-09-10T07:17:37.531Z,23.57
2022-09-10T07:20:08.699Z,2.97
2022-09-10T07:22:40.067Z,6.50
2022-09-10T07:25:07.712Z,7.33
2022-09-10T07:27:34.752Z,1.70
2022-09-10T07:30:01.884Z,4.67
2022-09-10T07:32:29.784Z,8.77
2022-09-10T07:34:58.151Z,6.63
2022-09-10T07:37:26.123Z,3.60
2022-09-10T07:39:52.964Z,1.80
2022-09-10T07:42:19.956Z,4.87
2022-09-10T07:44:46.742Z,4.83
2022-09-10T07:47:13.447Z,1.80
2022-09-10T07:49:40.316Z,2.10
2022-09-10T07:52:07.425Z,3.90
2022-09-10T07:54:34.425Z,2.30
2022-09-10T07:57:05.450Z,17.23
2022-09-10T07:59:32.743Z,2.40
2022-09-10T08:02:00.279Z,3.80
2022-09-10T08:04:34.551Z,1.90
2022-09-10T08:07:03.842Z,1.70
2022-09-10T08:09:30.567Z,3.00
2022-09-10T08:12:00.495Z,6.33
2022-09-10T08:14:41.975Z,2.40
2022-09-10T08:17:08.743Z,5.23
2022-09-10T08:19:39.539Z,6.03
2022-09-10T08:22:18.815Z,1.40
2022-09-10T08:24:48.056Z,1.73
2022-09-10T08:27:16.298Z,2.93
2022-09-10T08:29:43.873Z,3.73
2022-09-10T08:32:13.187Z,3.40
2022-09-10T08:34:40.784Z,22.70
2022-09-10T08:37:10.743Z,3.67
2022-09-10T08:39:44.537Z,6.70
2022-09-10T08:42:25.226Z,3.43
2022-09-10T08:44:58.659Z,13.73
2022-09-10T08:47:46.577Z,2.90
2022-09-10T08:50:33.735Z,5.87
2022-09-10T08:53:17.966Z,2.70
2022-09-10T08:55:48.940Z,7.07
2022-09-10T08:58:37.466Z,9.47
2022-09-10T09:01:13.218Z,51.97
2022-09-10T09:03:48.679Z,13.63
2022-09-10T09:06:42.610Z,5.77
2022-09-10T09:09:15.608Z,7.30
2022-09-10T09:12:20.948Z,6.57
2022-09-10T09:14:59.667Z,5.60
2022-09-10T09:17:48.431Z,6.03
2022-09-10T09:20:34.154Z,4.17
2022-09-10T09:23:20.933Z,14.23
2022-09-10T09:25:51.609Z,3.47
2022-09-10T09:28:26.401Z,3.23
2022-09-10T09:30:55.752Z,4.40
2022-09-10T09:33:27.635Z,7.40
2022-09-10T09:36:03.116Z,5.60
2022-09-10T09:38:35.180Z,6.10
2022-09-10T09:41:23.949Z,5.13
2022-09-10T09:44:03.309Z,3.33
2022-09-10T09:46:34.518Z,3.50
2022-09-10T09:49:02.616Z,2.93
2022-09-10T09:51:35.818Z,2.97
2022-09-10T09:55:10.106Z,3.60
2022-09-10T09:57:20.811Z,3.07
2022-09-10T09:59:51.898Z,4.40
2022-09-10T10:02:30.727Z,2.97
2022-09-10T10:05:07.167Z,4.67
2022-09-10T10:07:36.596Z,3.73
2022-09-10T10:10:07.621Z,4.13
2022-09-10T10:12:39.422Z,3.70
2022-09-10T10:15:26.417Z,5.53
2022-09-10T10:17:53.311Z,2.03
2022-09-10T10:20:37.011Z,3.40
2022-09-10T10:23:36.885Z,4.30
2022-09-10T10:26:22.048Z,3.63
2022-09-10T10:29:09.135Z,3.00
2022-09-10T10:31:43.682Z,3.07
2022-09-10T10:34:10.889Z,2.60
2022-09-10T10:36:59.573Z,3.30
2022-09-10T10:39:52.717Z,3.47
2022-09-10T10:42:30.006Z,2.63
2022-09-10T10:45:08.758Z,3.03
2022-09-10T10:47:48.541Z,2.03
2022-09-10T10:50:58.852Z,3.57
2022-09-10T10:53:39.204Z,3.27
2022-09-10T10:56:12.912Z,2.03
2022-09-10T10:59:30.555Z,2.20
2022-09-10T11:02:25.235Z,1.53
2022-09-10T11:04:54.223Z,1.53
2022-09-10T11:07:20.831Z,1.47
2022-09-10T11:09:59.327Z,2.47
2022-09-10T11:12:36.181Z,3.50
2022-09-10T11:15:02.980Z,1.30
2022-09-10T11:17:47.252Z,1.83
2022-09-10T11:20:28.890Z,1.33
2022-09-10T11:25:55.596Z,1.50
2022-09-10T11:28:30.474Z,2.27
2022-09-10T11:31:03.750Z,2.17
2022-09-10T11:34:16.055Z,1.90
2022-09-10T11:36:52.613Z,2.00
2022-09-10T11:39:27.979Z,3.67
2022-09-10T11:42:00.068Z,2.70
2022-09-10T11:44:47.539Z,1.83
2022-09-10T11:47:33.292Z,2.90
2022-09-10T11:50:11.003Z,2.33
2022-09-10T11:55:19.963Z,1.97
2022-09-10T11:58:01.029Z,2.67
2022-09-10T12:00:31.557Z,1.07
2022-09-10T12:03:32.330Z,1.30
2022-09-10T12:06:15.114Z,1.27
2022-09-10T12:09:14.066Z,2.00
2022-09-10T12:11:58.833Z,1.50
2022-09-10T12:14:25.598Z,3.00
2022-09-10T12:17:04.257Z,1.83
2022-09-10T12:19:58.117Z,2.07
2022-09-10T12:22:38.016Z,1.87
2022-09-10T12:25:34.574Z,1.93
2022-09-10T12:28:06.456Z,1.93
2022-09-10T12:30:36.250Z,2.10
2022-09-10T12:33:26.600Z,2.50
2022-09-10T12:35:56.007Z,2.87
2022-09-10T12:38:50.155Z,2.53
2022-09-10T12:41:29.690Z,2.27
2022-09-10T12:44:00.967Z,2.43
2022-09-10T12:46:32.455Z,2.40
2022-09-10T12:49:02.243Z,1.87
2022-09-10T12:51:44.149Z,4.73
2022-09-10T12:54:40.433Z,3.77
2022-09-10T12:57:28.899Z,4.57
2022-09-10T13:00:21.997Z,2.70
2022-09-10T13:03:16.142Z,2.50
2022-09-10T13:05:53.352Z,2.20
2022-09-10T13:08:32.167Z,4.43
2022-09-10T13:10:59.381Z,2.50
2022-09-10T13:13:51.352Z,2.30
2022-09-10T13:16:38.376Z,3.57
2022-09-10T13:19:14.122Z,5.67
2022-09-10T13:21:44.262Z,3.90
2022-09-10T13:24:36.175Z,4.27
2022-09-10T13:27:34.468Z,6.53
2022-09-10T13:30:28.645Z,2.30
2022-09-10T13:33:07.995Z,4.40
2022-09-10T13:36:25.566Z,4.80
2022-09-10T13:39:20.568Z,3.23
2022-09-10T13:42:08.874Z,2.93
2022-09-10T13:44:56.173Z,3.03
2022-09-10T13:47:36.204Z,3.83
2022-09-10T13:50:21.138Z,3.40
2022-09-10T13:52:52.355Z,3.33
2022-09-10T13:55:28.779Z,3.03
2022-09-10T13:58:00.140Z,3.33
2022-09-10T14:00:34.784Z,3.93
2022-09-10T14:03:14.080Z,6.10
2022-09-10T14:05:53.383Z,4.67
2022-09-10T14:08:23.620Z,3.27
2022-09-10T14:11:16.724Z,2.87
2022-09-10T14:14:01.255Z,3.73
2022-09-10T14:16:49.018Z,2.77
2022-09-10T14:19:34.966Z,3.07
2022-09-10T14:22:06.197Z,3.30
2022-09-10T14:24:37.249Z,5.67
2022-09-10T14:27:55.338Z,2.77
2022-09-10T14:30:30.231Z,2.93
2022-09-10T14:33:33.636Z,3.00
2022-09-10T14:36:17.826Z,2.67
2022-09-10T14:39:19.984Z,3.33
2022-09-10T14:42:25.174Z,2.13
2022-09-10T14:44:55.095Z,4.27
2022-09-10T14:47:37.245Z,2.73
2022-09-10T14:50:28.096Z,2.30
2022-09-10T14:52:58.385Z,3.23
2022-09-10T14:55:33.940Z,4.57
2022-09-10T14:58:00.976Z,4.67
2022-09-10T15:00:28.243Z,4.47
2022-09-10T15:03:04.578Z,3.60
2022-09-10T15:05:31.516Z,3.07
2022-09-10T15:07:58.338Z,3.00
2022-09-10T15:10:25.317Z,2.70
2022-09-10T15:12:53.185Z,6.97
2022-09-10T15:15:19.935Z,2.80
2022-09-10T15:17:47.028Z,4.00
2022-09-10T15:20:17.192Z,4.60
2022-09-10T15:22:44.714Z,5.10
2022-09-10T15:25:38.390Z,4.97
2022-09-10T15:28:07.668Z,3.47
2022-09-10T15:30:36.155Z,4.57
2022-09-10T15:33:09.672Z,4.60
2022-09-10T15:35:42.551Z,5.03
2022-09-10T15:38:13.154Z,3.40
2022-09-10T15:40:40.005Z,4.77
2022-09-10T15:43:07.395Z,6.93
2022-09-10T15:45:35.672Z,6.53
2022-09-10T15:48:17.082Z,4.33
2022-09-10T15:50:44.875Z,4.60
2022-09-10T15:53:12.177Z,4.37
2022-09-10T15:55:49.699Z,7.67
2022-09-10T15:58:16.495Z,10.40
2022-09-10T16:00:44.660Z,15.63
2022-09-10T16:03:11.441Z,10.40
2022-09-10T16:05:41.235Z,4.63
2022-09-10T16:08:20.354Z,3.90
2022-09-10T16:10:49.909Z,4.13
2022-09-10T16:13:20.268Z,3.70
2022-09-10T16:15:59.368Z,4.07
2022-09-10T16:18:27.879Z,6.07
2022-09-10T16:20:54.943Z,3.97
2022-09-10T16:23:22.073Z,11.90
2022-09-10T16:26:09.180Z,6.70
2022-09-10T16:28:36.157Z,8.60
2022-09-10T16:31:23.625Z,7.60
2022-09-10T16:33:54.806Z,2.73
2022-09-10T16:36:29.627Z,2.93
2022-09-10T16:38:57.722Z,2.90
2022-09-10T16:41:28.019Z,2.30
2022-09-10T16:44:11.032Z,4.93
2022-09-10T16:46:38.732Z,3.00
2022-09-10T16:49:07.975Z,2.13
2022-09-10T16:51:41.557Z,3.90
2022-09-10T16:54:09.141Z,2.70
2022-09-10T16:56:42.110Z,3.93
2022-09-10T16:59:30.684Z,4.03
2022-09-10T17:01:59.553Z,1.63
2022-09-10T17:04:29.185Z,2.73
2022-09-10T17:06:59.910Z,2.00
2022-09-10T17:09:27.757Z,2.10
2022-09-10T17:11:54.964Z,1.47
2022-09-10T17:14:24.851Z,2.07
2022-09-10T17:16:52.223Z,3.87
2022-09-10T17:19:23.763Z,1.83
2022-09-10T17:21:55.603Z,2.10
2022-09-10T17:24:28.891Z,3.67
2022-09-10T17:26:56.182Z,2.57
2022-09-10T17:29:26.603Z,3.90
2022-09-10T17:31:55.616Z,3.13
2022-09-10T17:34:24.734Z,3.37
2022-09-10T17:36:51.875Z,3.30
2022-09-10T17:39:18.637Z,3.53
2022-09-10T17:41:45.365Z,3.13
2022-09-10T17:44:21.361Z,4.20
2022-09-10T17:46:48.082Z,2.37
2022-09-10T17:49:15.632Z,4.37
2022-09-10T17:51:42.735Z,3.97
2022-09-10T17:54:09.803Z,3.73
2022-09-10T17:56:38.041Z,3.03
2022-09-10T17:59:05.743Z,3.77
2022-09-10T18:01:39.290Z,4.83
2022-09-10T18:04:15.917Z,2.80
2022-09-10T18:06:46.834Z,3.93
2022-09-10T18:09:16.732Z,3.53
2022-09-10T18:11:44.133Z,3.70
2022-09-10T18:14:21.759Z,3.60
2022-09-10T18:16:49.188Z,3.07
2022-09-10T18:19:22.648Z,4.40
2022-09-10T18:21:55.131Z,4.67
2022-09-10T18:24:24.144Z,3.37
2022-09-10T18:26:56.688Z,5.20
2022-09-10T18:29:27.121Z,3.43
2022-09-10T18:31:58.120Z,4.67
2022-09-10T18:34:32.389Z,2.90
2022-09-10T18:37:01.353Z,4.77
2022-09-10T18:39:30.686Z,3.10
2022-09-10T18:41:58.914Z,4.43
2022-09-10T18:44:30.033Z,5.60
2022-09-10T18:46:56.751Z,5.03
2022-09-10T18:49:25.107Z,4.47
2022-09-10T18:51:53.240Z,3.93
2022-09-10T18:54:21.129Z,4.13
2022-09-10T18:56:48.907Z,2.23
2022-09-10T18:59:20.163Z,3.97
2022-09-10T19:01:48.196Z,3.53
2022-09-10T19:04:18.244Z,3.03
2022-09-10T19:06:50.451Z,2.70
2022-09-10T19:09:23.734Z,3.30
2022-09-10T19:11:53.208Z,4.80
2022-09-10T19:14:35.674Z,3.63
2022-09-10T19:17:03.531Z,3.40
2022-09-10T19:19:32.795Z,4.50
2022-09-10T19:22:07.283Z,3.77
2022-09-10T19:27:24.344Z,3.90
2022-09-10T19:29:51.827Z,3.27
2022-09-10T19:32:20.318Z,2.20
2022-09-10T19:34:50.331Z,2.53
2022-09-10T19:37:17.338Z,1.87
2022-09-10T19:39:44.703Z,1.90
2022-09-10T19:42:12.748Z,2.90
2022-09-10T19:44:39.493Z,2.63
2022-09-10T19:47:09.359Z,3.43
2022-09-10T19:49:36.253Z,2.47
2022-09-10T19:52:04.295Z,2.43
2022-09-10T19:54:32.197Z,2.40
2022-09-10T19:56:58.907Z,2.30
2022-09-10T19:59:28.499Z,1.67
2022-09-10T20:01:55.852Z,2.70
2022-09-10T20:04:28.750Z,2.00
2022-09-10T20:06:55.506Z,1.90
2022-09-10T20:09:27.343Z,1.80
2022-09-10T20:12:00.247Z,3.17
2022-09-10T20:14:30.055Z,3.70
2022-09-10T20:17:04.001Z,1.73
2022-09-10T20:19:30.928Z,4.30
2022-09-10T20:22:03.163Z,2.17
2022-09-10T20:24:29.863Z,1.70
2022-09-10T20:26:59.673Z,2.13
2022-09-10T20:29:28.492Z,2.43
2022-09-10T20:31:55.209Z,2.40
2022-09-10T20:34:35.389Z,2.03
2022-09-10T20:37:03.171Z,1.73
2022-09-10T20:39:39.036Z,2.20
2022-09-10T20:42:09.809Z,1.70
2022-09-10T20:44:50.803Z,1.83
2022-09-10T20:47:27.177Z,1.80
2022-09-10T20:49:57.575Z,1.97
2022-09-10T20:52:24.389Z,3.13
2022-09-10T20:54:51.437Z,1.50
2022-09-10T20:57:40.209Z,1.93
2022-09-10T21:00:11.506Z,1.50
2022-09-10T21:02:39.227Z,3.43
2022-09-10T21:05:06.418Z,1.57
2022-09-10T21:07:34.802Z,1.90
2022-09-10T21:10:01.921Z,1.70
2022-09-10T21:12:36.337Z,2.00
2022-09-10T21:15:03.203Z,1.80
2022-09-10T21:17:31.263Z,2.00
2022-09-10T21:19:58.268Z,1.83
2022-09-10T21:22:27.998Z,1.70
2022-09-10T21:24:54.792Z,1.93
2022-09-10T21:27:21.607Z,2.07
2022-09-10T21:29:51.506Z,1.80
2022-09-10T21:32:23.571Z,1.30
2022-09-10T21:34:53.409Z,1.50
2022-09-10T21:37:20.332Z,1.40
2022-09-10T21:39:47.455Z,1.47
2022-09-10T21:44:55.166Z,1.40
2022-09-10T21:47:21.887Z,1.40
2022-09-10T21:49:52.984Z,1.13
2022-09-10T21:52:19.739Z,0.97
2022-09-10T21:54:46.454Z,1.47
2022-09-10T21:57:16.627Z,0.80
2022-09-10T21:59:44.300Z,0.70
2022-09-10T22:02:11.471Z,0.80
2022-09-10T22:04:38.408Z,0.70
2022-09-10T22:07:08.342Z,0.70
2022-09-10T22:09:37.435Z,0.90
2022-09-10T22:12:07.105Z,1.13
2022-09-10T22:14:39.168Z,0.80
2022-09-10T22:17:05.894Z,0.90
2022-09-10T22:19:41.989Z,1.03
2022-09-10T22:22:10.457Z,1.10
2022-09-10T22:24:37.166Z,1.10
2022-09-10T22:27:03.943Z,1.10
2022-09-10T22:29:41.175Z,0.80
2022-09-10T22:32:07.950Z,1.33
2022-09-10T22:34:38.948Z,1.50
2022-09-10T22:37:05.684Z,2.00
2022-09-10T22:39:32.427Z,1.10
2022-09-10T22:42:04.544Z,1.67
2022-09-10T22:44:31.580Z,1.30
2022-09-10T22:47:01.340Z,1.07
2022-09-10T22:49:31.035Z,2.33
2022-09-10T22:52:04.136Z,1.43
2022-09-10T22:54:38.063Z,1.80
2022-09-10T22:57:05.407Z,1.10
2022-09-10T22:59:37.423Z,1.30
2022-09-10T23:02:04.906Z,1.27
2022-09-10T23:04:31.712Z,1.10
2022-09-10T23:06:59.487Z,1.10
2022-09-10T23:09:26.238Z,1.30
2022-09-10T23:11:52.931Z,1.30
2022-09-10T23:14:21.963Z,1.20
2022-09-10T23:16:50.896Z,1.40
2022-09-10T23:19:29.384Z,1.60
2022-09-10T23:22:04.292Z,1.60
2022-09-10T23:24:33.698Z,1.67
2022-09-10T23:27:00.962Z,1.60
2022-09-10T23:29:27.883Z,1.47
2022-09-10T23:31:54.737Z,1.90
2022-09-10T23:34:22.966Z,1.53
2022-09-10T23:37:10.150Z,2.00
2022-09-10T23:39:40.061Z,1.50
2022-09-10T23:42:09.753Z,1.60
2022-09-10T23:44:36.695Z,1.30
2022-09-10T23:47:03.829Z,1.50
2022-09-10T23:49:32.686Z,2.40
2022-09-10T23:51:59.397Z,1.40
2022-09-10T23:54:26.123Z,1.20
2022-09-10T23:56:52.812Z,1.13
2022-09-10T23:59:23.248Z,1.30
